Time;durP1;ratioP1;P1;durP2;ratioP2;P2;SDS_P1;SDS_P2;PMS_P1;PMS_P2;Temp;Humidity;BMP_temperature;BMP_pressure;BME280_temperature;BME280_humidity;BME280_pressure;Samples;Min_cycle;Max_cycle;Signal;HPM_P1;HPM_P2
2022/10/28 00:01:35;;;;;;;12.07;4.05;;;;;;;12.51;96.64;101295.44;6215448;23;20023;-78
2022/10/28 00:04:39;;;;;;;24.55;5.13;;;;;;;12.50;96.37;101306.84;6215886;23;20028;-78
2022/10/28 00:07:43;;;;;;;21.55;6.18;;;;;;;12.51;96.14;101298.91;6216098;23;20119;-78
2022/10/28 00:10:46;;;;;;;16.10;5.00;;;;;;;12.55;96.33;101296.97;6215842;23;20023;-78
2022/10/28 00:13:52;;;;;;;15.55;5.07;;;;;;;12.55;95.91;101302.22;6198093;23;20023;-78
2022/10/28 00:16:56;;;;;;;15.43;4.03;;;;;;;12.52;95.82;101299.75;6215991;23;20027;-79
2022/10/28 00:20:00;;;;;;;11.88;4.20;;;;;;;12.40;96.77;101290.69;6216225;23;20499;-78
2022/10/28 00:23:05;;;;;;;12.98;3.92;;;;;;;12.40;96.49;101289.84;6215803;23;20455;-78
2022/10/28 00:26:13;;;;;;;11.35;3.65;;;;;;;12.39;96.56;101272.41;6215955;23;20083;-78
2022/10/28 00:29:18;;;;;;;22.77;4.72;;;;;;;12.38;96.42;101289.94;6216150;23;20471;-78
2022/10/28 00:32:21;;;;;;;18.90;4.95;;;;;;;12.43;96.21;101285.28;6197755;23;20028;-79
2022/10/28 00:35:26;;;;;;;10.95;4.35;;;;;;;12.40;96.19;101282.81;6215821;23;20055;-78
2022/10/28 00:38:29;;;;;;;9.55;3.70;;;;;;;12.45;95.61;101280.00;6215406;23;20040;-78
2022/10/28 00:41:37;;;;;;;13.10;4.57;;;;;;;12.36;95.82;101276.03;6216005;23;20044;-78
2022/10/28 00:44:55;;;;;;;9.82;3.97;;;;;;;12.41;95.39;101283.66;6215804;23;20063;-78
2022/10/28 00:48:03;;;;;;;28.50;5.78;;;;;;;12.53;94.93;101277.84;6215508;23;20051;-79
2022/10/28 00:51:08;;;;;;;22.52;4.43;;;;;;;12.41;94.88;101265.31;6215487;23;20028;-78
2022/10/28 00:54:13;;;;;;;22.90;5.30;;;;;;;12.42;95.29;101269.66;6216176;23;20030;-78
2022/10/28 00:57:21;;;;;;;13.98;4.57;;;;;;;12.50;94.86;101246.50;6215770;23;20507;-78
2022/10/28 01:00:24;;;;;;;13.55;3.40;;;;;;;12.38;95.07;101257.56;6215064;23;20051;-78
2022/10/28 01:03:28;;;;;;;15.38;3.42;;;;;;;12.32;95.48;101251.72;6197215;23;20028;-78
2022/10/28 01:06:32;;;;;;;14.25;3.60;;;;;;;12.33;95.36;101253.41;6215665;23;20138;-78
2022/10/28 01:09:38;;;;;;;12.30;3.30;;;;;;;12.27;95.62;101247.63;6215301;23;20051;-78
2022/10/28 01:13:20;;;;;;;12.75;3.45;;;;;;;12.29;95.63;101257.13;6215335;23;20135;-78
2022/10/28 01:17:05;;;;;;;14.48;3.90;;;;;;;12.32;95.39;101246.47;6178109;23;20051;-78
2022/10/28 01:20:17;;;;;;;17.33;3.72;;;;;;;12.33;95.45;101253.41;6192448;23;20028;-78
2022/10/28 01:23:26;;;;;;;12.15;3.75;;;;;;;12.38;95.29;101244.47;6215846;23;20121;-78
2022/10/28 01:27:05;;;;;;;16.48;3.97;;;;;;;12.27;95.94;101258.94;6216012;23;20071;-78
2022/10/28 01:30:15;;;;;;;14.95;3.67;;;;;;;12.43;94.99;101261.69;6215418;23;20023;-78
2022/10/28 01:33:39;;;;;;;18.33;3.63;;;;;;;12.42;95.56;101256.53;6215063;23;20024;-78
2022/10/28 01:36:49;;;;;;;18.13;4.10;;;;;;;12.30;95.38;101243.06;6215087;23;20026;-78
2022/10/28 01:39:56;;;;;;;12.50;3.90;;;;;;;12.27;95.61;101243.22;6215215;23;20135;-78
2022/10/28 01:43:28;;;;;;;20.80;3.95;;;;;;;12.32;95.29;101240.41;6215285;23;20051;-78
2022/10/28 01:46:44;;;;;;;14.10;3.65;;;;;;;12.36;95.40;101241.94;6214700;23;20104;-78
2022/10/28 01:49:56;;;;;;;12.27;3.65;;;;;;;12.16;96.02;101229.78;6215130;23;20035;-78
2022/10/28 01:53:05;;;;;;;23.77;4.05;;;;;;;12.27;95.84;101227.47;6215493;23;20022;-78
2022/10/28 01:56:14;;;;;;;12.73;3.80;;;;;;;12.24;95.14;101229.41;6215223;23;20023;-78
2022/10/28 01:59:22;;;;;;;16.63;3.53;;;;;;;12.24;95.53;101222.38;6214831;23;20027;-78
2022/10/28 02:02:32;;;;;;;18.08;4.80;;;;;;;12.20;95.55;101214.75;6215014;23;20024;-78
2022/10/28 02:05:42;;;;;;;9.27;3.38;;;;;;;12.19;96.17;101213.03;6215001;23;20070;-78
2022/10/28 02:08:56;;;;;;;12.90;3.58;;;;;;;12.23;95.91;101220.69;6215109;23;20028;-78
2022/10/28 02:12:19;;;;;;;9.52;3.40;;;;;;;12.22;95.78;101213.75;6215038;23;20019;-78
2022/10/28 02:15:44;;;;;;;20.38;4.45;;;;;;;12.16;95.95;101214.06;6214937;23;20031;-78
2022/10/28 02:19:00;;;;;;;18.23;3.92;;;;;;;12.23;95.63;101212.84;6214963;23;20027;-78
2022/10/28 02:22:36;;;;;;;12.10;3.50;;;;;;;12.33;95.12;101200.13;6215036;23;20023;-79
2022/10/28 02:25:51;;;;;;;20.67;5.22;;;;;;;12.26;95.57;101210.06;6214916;23;20078;-78
2022/10/28 02:29:05;;;;;;;9.63;3.50;;;;;;;12.17;96.38;101200.00;6214922;23;20074;-78
2022/10/28 02:32:16;;;;;;;20.80;3.67;;;;;;;12.24;96.34;101190.91;6214505;23;20256;-78
2022/10/28 02:35:29;;;;;;;14.85;4.13;;;;;;;12.12;97.34;101196.75;6214513;23;20028;-78
2022/10/28 02:38:46;;;;;;;17.10;3.15;;;;;;;12.14;97.15;101205.41;6196648;23;20089;-78
2022/10/28 02:42:00;;;;;;;14.07;3.53;;;;;;;12.24;96.93;101190.91;6214655;23;20139;-78
2022/10/28 02:45:08;;;;;;;;;;;;;;;12.23;97.02;101199.72;6215126;23;20066;-78
2022/10/28 02:48:39;;;;;;;13.65;4.38;;;;;;;12.37;96.03;101185.94;6214103;23;19935;-78
2022/10/28 02:51:55;;;;;;;16.10;3.60;;;;;;;12.37;96.42;101178.06;6196365;23;20441;-78
2022/10/28 02:55:03;;;;;;;12.30;3.20;;;;;;;12.40;95.92;101185.78;6214846;23;20407;-78
2022/10/28 02:58:08;;;;;;;13.48;3.75;;;;;;;12.29;96.62;101188.94;6214525;23;20024;-78
2022/10/28 03:01:12;;;;;;;12.20;2.90;;;;;;;12.27;97.05;101180.28;6214675;23;20092;-78
2022/10/28 03:04:15;;;;;;;21.30;3.53;;;;;;;12.26;97.26;101178.59;6196044;23;20086;-78
2022/10/28 03:07:19;;;;;;;9.52;3.00;;;;;;;12.32;96.75;101183.53;6214667;23;20062;-78
2022/10/28 03:10:23;;;;;;;16.52;4.00;;;;;;;12.31;97.03;101180.97;6214120;23;20027;-78
2022/10/28 03:13:26;;;;;;;29.85;5.13;;;;;;;12.34;96.67;101173.81;6214079;23;20057;-78
2022/10/28 03:16:30;;;;;;;15.40;3.38;;;;;;;12.37;96.13;101178.06;6214166;23;20088;-78
2022/10/28 03:19:33;;;;;;;22.17;4.60;;;;;;;12.40;96.06;101180.53;6214541;23;20044;-78
2022/10/28 03:22:37;;;;;;;14.32;3.28;;;;;;;12.31;96.32;101191.47;6214537;23;20068;-79
2022/10/28 03:25:40;;;;;;;12.02;3.55;;;;;;;12.31;96.60;101188.84;6214985;23;20104;-78
2022/10/28 03:28:43;;;;;;;;;;;;;;;12.32;96.91;101194.03;6215405;23;20063;-78
2022/10/28 03:31:48;;;;;;;15.32;3.38;;;;;;;12.19;97.60;101198.19;6214740;23;19915;-78
2022/10/28 03:34:51;;;;;;;9.48;3.47;;;;;;;12.27;97.35;101190.78;6214701;23;20108;-78
2022/10/28 03:37:54;;;;;;;17.52;4.57;;;;;;;12.31;97.29;101187.06;6214179;23;20302;-79
2022/10/28 03:40:57;;;;;;;;;;;;;;;12.47;96.31;101196.81;6220771;23;20043;-78
2022/10/28 03:44:01;;;;;;;12.13;3.38;;;;;;;12.40;96.67;101195.44;6214394;23;19915;-78
2022/10/28 03:47:04;;;;;;;;;;;;;;;12.23;97.35;101186.63;6196699;23;20031;-78
2022/10/28 03:50:08;;;;;;;11.15;3.25;;;;;;;12.24;97.20;101183.06;6214365;23;20244;-78
2022/10/28 03:53:12;;;;;;;12.25;3.05;;;;;;;12.33;96.72;101184.38;6214561;23;20083;-78
2022/10/28 03:56:15;;;;;;;11.93;2.80;;;;;;;12.29;97.00;101188.09;6214424;23;20086;-78
2022/10/28 03:59:20;;;;;;;17.17;3.03;;;;;;;12.28;97.21;101186.38;6209684;23;20055;-78
2022/10/28 04:02:27;;;;;;;14.02;3.78;;;;;;;12.36;96.75;101180.78;6208022;23;20280;-78
2022/10/28 04:05:32;;;;;;;11.90;2.97;;;;;;;12.26;96.75;101175.97;6190386;23;20028;-78
2022/10/28 04:08:36;;;;;;;15.30;3.38;;;;;;;12.13;97.67;101172.25;6190999;23;20027;-78
2022/10/28 04:11:40;;;;;;;12.80;4.25;;;;;;;12.13;97.61;101180.13;6215230;23;20020;-78
2022/10/28 04:14:44;;;;;;;12.77;4.18;;;;;;;12.20;97.19;101168.41;6213361;23;20352;-78
2022/10/28 04:17:47;;;;;;;8.90;3.35;;;;;;;12.15;97.82;101180.88;6212941;23;20154;-78
2022/10/28 04:20:51;;;;;;;;;;;;;;;12.11;97.64;101168.84;6210626;23;20083;-78
2022/10/28 04:23:55;;;;;;;7.82;3.60;;;;;;;12.13;97.35;101161.78;6209975;23;20477;-78
2022/10/28 04:26:59;;;;;;;10.32;3.40;;;;;;;12.14;97.53;101166.09;6210822;23;20464;-78
2022/10/28 04:30:03;;;;;;;9.38;3.15;;;;;;;12.17;97.45;101165.09;6212162;23;20086;-78
2022/10/28 04:33:07;;;;;;;23.70;5.00;;;;;;;12.11;96.98;101160.97;6210605;23;20503;-78
2022/10/28 04:36:11;;;;;;;16.10;4.07;;;;;;;12.00;97.35;101152.81;6211848;23;20479;-78
2022/10/28 04:39:15;;;;;;;14.05;3.13;;;;;;;12.05;96.95;101153.41;6210331;23;20039;-78
2022/10/28 04:42:18;;;;;;;19.73;4.13;;;;;;;12.03;96.59;101147.41;6210899;23;20079;-78
2022/10/28 04:45:24;;;;;;;10.30;3.35;;;;;;;11.96;97.03;101146.00;6210768;23;20032;-78
2022/10/28 04:48:28;;;;;;;14.85;4.55;;;;;;;11.89;97.58;101134.13;6210336;23;20079;-78
2022/10/28 04:51:32;;;;;;;11.98;4.53;;;;;;;11.88;97.86;101140.28;6212759;23;20397;-78
2022/10/28 04:54:37;;;;;;;12.63;4.68;;;;;;;11.96;96.65;101140.75;6211604;23;20027;-78
2022/10/28 04:57:53;;;;;;;11.90;3.53;;;;;;;11.93;96.24;101136.50;6201338;23;20028;-77
2022/10/28 05:00:58;;;;;;;15.68;4.03;;;;;;;11.94;96.17;101134.75;6194969;23;20090;-78
2022/10/28 05:04:03;;;;;;;17.92;3.45;;;;;;;11.86;96.33;101138.56;6213370;23;20024;-78
2022/10/28 05:07:08;;;;;;;15.02;3.47;;;;;;;11.80;96.32;101130.13;6212020;23;20023;-78
2022/10/28 05:26:11;;;;;;;12.82;4.55;;;;;;;11.43;97.83;101120.53;6183204;22;2956653;-79
2022/10/28 05:29:18;;;;;;;20.17;4.80;;;;;;;11.50;96.68;101120.19;6341048;22;20147;-79
2022/10/28 05:32:22;;;;;;;12.38;3.30;;;;;;;11.46;96.08;101112.56;6322322;22;20025;-79
2022/10/28 05:35:26;;;;;;;13.85;3.38;;;;;;;11.57;94.99;101118.13;6343128;22;20057;-79
2022/10/28 05:38:30;;;;;;;18.42;5.28;;;;;;;11.58;95.39;101110.19;6324381;22;20598;-79
2022/10/28 05:41:34;;;;;;;14.75;3.55;;;;;;;11.47;95.47;101116.84;6342803;22;20068;-79
2022/10/28 05:44:38;;;;;;;21.08;3.63;;;;;;;11.45;95.75;101121.31;6342397;22;20025;-79
2022/10/28 05:47:44;;;;;;;32.45;5.10;;;;;;;11.50;95.54;101124.56;6342179;22;20025;-79
2022/10/28 05:50:48;;;;;;;12.45;4.13;;;;;;;11.39;96.38;101136.41;6341872;22;20096;-79
2022/10/28 05:53:53;;;;;;;17.30;4.00;;;;;;;11.57;95.79;101134.69;6342101;22;20071;-79
2022/10/28 05:56:56;;;;;;;14.50;4.68;;;;;;;11.47;96.82;101130.78;6343163;22;20038;-79
2022/10/28 06:00:02;;;;;;;27.60;5.40;;;;;;;11.58;95.58;101132.91;6342304;22;20025;-79
2022/10/28 06:03:16;;;;;;;12.60;4.40;;;;;;;11.43;96.48;101141.50;6341918;22;20018;-78
2022/10/28 06:06:19;;;;;;;;;;;;;;;11.39;96.84;101144.25;6343180;22;20025;-79
2022/10/28 06:09:22;;;;;;;;;;;;;;;11.49;96.19;101143.84;6322751;22;20067;-78
2022/10/28 06:12:26;;;;;;;20.40;5.18;;;;;;;11.60;96.12;101146.78;6321113;22;20017;-79
2022/10/28 06:15:31;;;;;;;24.17;4.70;;;;;;;11.59;95.98;101164.28;6341017;22;20045;-79
2022/10/28 06:18:38;;;;;;;17.00;4.80;;;;;;;11.60;96.21;101163.34;6340926;22;20099;-79
2022/10/28 06:21:42;;;;;;;18.88;4.85;;;;;;;11.71;96.00;101157.63;6339873;22;20656;-79
2022/10/28 06:24:46;;;;;;;19.30;7.72;;;;;;;11.65;96.02;101168.38;6333813;22;20520;-78
2022/10/28 06:27:54;;;;;;;28.70;6.63;;;;;;;11.70;95.39;101174.25;6334593;22;20020;-78
2022/10/28 06:31:06;;;;;;;17.17;7.53;;;;;;;11.75;95.07;101172.28;6334349;22;20498;-78
2022/10/28 06:34:10;;;;;;;16.08;6.45;;;;;;;11.72;95.23;101156.69;6334191;22;20087;-79
2022/10/28 06:37:14;;;;;;;19.08;5.70;;;;;;;11.70;95.67;101158.53;6333784;22;20025;-79
2022/10/28 06:40:18;;;;;;;21.33;6.55;;;;;;;11.75;95.84;101171.44;6333914;22;20026;-78
2022/10/28 06:43:22;;;;;;;21.30;4.60;;;;;;;11.70;96.23;101174.25;6332846;22;20465;-78
2022/10/28 06:46:25;;;;;;;16.13;4.82;;;;;;;11.61;95.93;101174.66;6331005;22;20346;-78
2022/10/28 06:49:28;;;;;;;12.45;5.35;;;;;;;11.75;95.75;101171.44;6333000;22;20072;-78
2022/10/28 06:52:31;;;;;;;;;;;;;;;11.73;96.27;101174.09;6315324;22;20092;-78
2022/10/28 06:55:34;;;;;;;17.95;4.43;;;;;;;11.63;96.66;101180.69;6334325;22;20360;-78
2022/10/28 06:58:38;;;;;;;14.20;4.32;;;;;;;11.71;96.33;101188.19;6333071;22;20356;-78
2022/10/28 07:01:42;;;;;;;15.82;5.20;;;;;;;11.58;97.60;101187.91;6333122;22;20082;-78
2022/10/28 07:04:45;;;;;;;15.85;4.03;;;;;;;11.69;97.07;101187.44;6335714;22;20037;-78
2022/10/28 07:07:49;;;;;;;11.82;4.03;;;;;;;11.82;96.58;101171.06;6331499;22;20527;-78
2022/10/28 07:10:58;;;;;;;22.58;9.95;;;;;;;11.84;95.99;101166.63;6332607;22;20026;-78
2022/10/28 07:14:02;;;;;;;15.73;5.03;;;;;;;11.74;96.71;101170.59;6334878;22;20352;-78
2022/10/28 07:17:06;;;;;;;9.77;3.70;;;;;;;11.80;96.22;101166.81;6335345;22;20046;-78
2022/10/28 07:20:11;;;;;;;13.80;4.40;;;;;;;11.85;96.15;101167.47;6334344;22;20029;-78
2022/10/28 07:23:15;;;;;;;15.25;4.32;;;;;;;11.91;95.97;101176.84;6334184;22;20091;-78
2022/10/28 07:26:19;;;;;;;11.27;3.35;;;;;;;11.90;96.39;101189.09;6333982;22;20290;-78
2022/10/28 07:29:25;;;;;;;17.80;4.57;;;;;;;11.83;96.45;101188.47;6334203;22;20083;-78
2022/10/28 07:32:32;;;;;;;14.18;3.80;;;;;;;11.80;97.14;101195.63;6333700;22;20024;-78
2022/10/28 07:35:35;;;;;;;13.93;3.63;;;;;;;11.89;96.92;101195.22;6333573;22;20083;-78
2022/10/28 07:38:40;;;;;;;10.25;3.97;;;;;;;11.95;96.29;101199.34;6335041;22;20022;-78
2022/10/28 07:41:43;;;;;;;19.33;3.92;;;;;;;11.89;97.48;101197.00;6335096;22;20064;-78
2022/10/28 07:44:47;;;;;;;10.48;3.45;;;;;;;11.85;97.59;101206.78;6334689;22;20358;-78
2022/10/28 07:47:51;;;;;;;;;;;;;;;12.08;96.34;101203.91;6333388;22;20452;-79
2022/10/28 07:50:55;;;;;;;7.32;3.88;;;;;;;11.94;97.55;101208.13;6333273;22;19910;-81
2022/10/28 07:53:59;;;;;;;8.48;4.40;;;;;;;12.14;99.21;101197.53;6333548;22;20095;-84
2022/10/28 07:57:02;;;;;;;15.50;4.07;;;;;;;12.10;98.60;101196.00;6334455;22;20097;-83
2022/10/28 08:00:06;;;;;;;10.50;3.08;;;;;;;12.12;98.34;101202.00;6334603;22;20350;-83
2022/10/28 08:03:16;;;;;;;12.10;3.35;;;;;;;12.23;97.96;101198.88;6333861;22;20049;-84
2022/10/28 08:06:20;;;;;;;9.85;3.83;;;;;;;12.13;98.30;101202.88;6334532;22;20026;-83
2022/10/28 08:09:27;;;;;;;8.68;2.92;;;;;;;12.18;98.14;101208.72;6314907;22;20480;-83
2022/10/28 08:12:31;;;;;;;9.57;3.10;;;;;;;12.27;97.77;101201.25;6332215;22;20075;-84
2022/10/28 08:15:38;;;;;;;8.60;3.20;;;;;;;12.24;98.38;101201.41;6332297;22;20079;-84
2022/10/28 08:18:44;;;;;;;15.77;3.33;;;;;;;12.29;98.04;101207.28;6332352;22;20098;-84
2022/10/28 08:21:48;;;;;;;8.38;3.17;;;;;;;12.38;98.05;101213.00;6331952;22;20022;-84
2022/10/28 08:24:53;;;;;;;14.73;3.47;;;;;;;12.37;98.23;101209.53;6333479;22;20468;-83
2022/10/28 08:27:56;;;;;;;7.93;3.00;;;;;;;12.46;98.81;101205.63;6334637;22;20076;-83
2022/10/28 08:31:02;;;;;;;8.73;3.03;;;;;;;12.57;98.15;101214.66;6332142;22;20524;-83
2022/10/28 08:34:07;;;;;;;9.68;3.03;;;;;;;12.58;97.96;101207.63;6330417;22;20444;-83
2022/10/28 08:37:11;;;;;;;8.23;2.72;;;;;;;12.64;98.24;101206.50;6334548;22;20087;-84
2022/10/28 08:40:26;;;;;;;9.90;3.15;;;;;;;12.67;97.86;101201.94;6333921;22;20148;-84
2022/10/28 08:43:50;;;;;;;9.50;3.10;;;;;;;12.70;98.22;101204.41;6334221;22;20067;-84
2022/10/28 08:47:11;;;;;;;7.22;2.50;;;;;;;12.77;98.61;101204.94;6314200;22;20033;-83
2022/10/28 08:50:21;;;;;;;8.63;2.78;;;;;;;12.80;98.01;101202.16;6333546;22;20076;-83
2022/10/28 08:53:36;;;;;;;5.18;2.85;;;;;;;12.79;98.81;101206.56;6314290;22;20079;-83
2022/10/28 08:56:46;;;;;;;3.60;2.25;;;;;;;12.96;98.72;101210.09;6334191;22;20572;-83
2022/10/28 08:59:52;;;;;;;8.93;3.00;;;;;;;12.95;98.75;101193.47;6333393;22;20107;-83
2022/10/28 09:02:59;;;;;;;9.82;3.00;;;;;;;13.01;99.59;101202.81;6314957;22;20025;-84
2022/10/28 09:06:05;;;;;;;4.78;2.72;;;;;;;13.12;99.70;101194.41;6333665;22;20053;-84
2022/10/28 09:09:29;;;;;;;8.55;2.65;;;;;;;13.10;99.85;101197.09;6314160;22;20034;-84
2022/10/28 09:12:54;;;;;;;7.32;3.92;;;;;;;13.14;100.00;101192.53;6314920;22;20111;-84
2022/10/28 09:16:37;;;;;;;7.60;3.03;;;;;;;13.22;99.83;101185.97;6333272;22;20048;-84
2022/10/28 09:23:30;;;;;;;13.43;3.47;;;;;;;13.19;100.00;101180.03;6334076;22;20021;-84
2022/10/28 09:27:21;;;;;;;11.68;3.42;;;;;;;13.24;100.00;101175.34;6272311;22;20442;-83
2022/10/28 09:31:08;;;;;;;10.32;3.10;;;;;;;13.24;100.00;101168.38;6180966;22;20428;-83
2022/10/28 09:34:30;;;;;;;8.85;3.65;;;;;;;13.38;100.00;101174.69;6180359;22;20044;-84
2022/10/28 09:37:42;;;;;;;10.18;2.95;;;;;;;13.47;100.00;101169.78;6271775;22;20030;-84
2022/10/28 09:40:53;;;;;;;6.00;3.10;;;;;;;13.60;100.00;101172.59;6271857;22;20081;-84
2022/10/28 09:44:12;;;;;;;14.43;3.80;;;;;;;13.77;100.00;101168.19;6271305;22;20035;-84
2022/10/28 09:47:21;;;;;;;8.43;3.20;;;;;;;13.88;100.00;101176.31;6270852;22;20113;-84
2022/10/28 09:50:29;;;;;;;15.23;4.20;;;;;;;13.89;100.00;101173.59;6252182;22;20077;-84
2022/10/28 09:53:47;;;;;;;8.15;3.75;;;;;;;14.00;100.00;101183.50;6267750;22;20027;-84
2022/10/28 09:56:51;;;;;;;7.95;4.03;;;;;;;14.13;100.00;101175.78;6269867;22;20027;-84
2022/10/28 09:59:54;;;;;;;13.85;3.90;;;;;;;14.24;100.00;101176.03;6272487;22;20027;-84
2022/10/28 10:02:58;;;;;;;10.68;3.63;;;;;;;14.34;100.00;101181.59;6271262;22;20018;-83
2022/10/28 10:06:12;;;;;;;10.27;3.85;;;;;;;14.42;100.00;101174.09;6270539;22;20102;-84
2022/10/28 10:09:26;;;;;;;8.13;3.45;;;;;;;14.55;100.00;101175.13;6254108;22;20058;-83
2022/10/28 10:12:32;;;;;;;9.25;3.88;;;;;;;14.56;100.00;101176.81;6271524;22;20076;-84
2022/10/28 10:15:39;;;;;;;16.02;4.28;;;;;;;14.75;100.00;101167.84;6254552;22;20050;-84
2022/10/28 10:18:50;;;;;;;15.15;4.25;;;;;;;14.77;100.00;101158.06;6273274;22;20103;-84
2022/10/28 10:21:54;;;;;;;9.40;3.95;;;;;;;14.78;100.00;101155.34;6276978;22;20019;-84
2022/10/28 10:24:58;;;;;;;9.43;4.10;;;;;;;14.87;100.00;101165.34;6300773;22;20081;-84
2022/10/28 10:28:13;;;;;;;9.60;3.90;;;;;;;14.99;100.00;101158.47;6314607;22;20022;-84
2022/10/28 10:31:25;;;;;;;12.27;4.70;;;;;;;15.21;100.00;101154.53;6285118;22;20095;-84
2022/10/28 10:34:30;;;;;;;11.38;4.50;;;;;;;15.36;100.00;101153.56;6337779;22;20029;-84
2022/10/28 10:37:35;;;;;;;12.48;3.70;;;;;;;15.40;100.00;101147.16;6334561;22;20143;-83
2022/10/28 10:40:51;;;;;;;18.25;4.60;;;;;;;15.46;100.00;101138.88;6333925;22;20087;-83
2022/10/28 10:43:54;;;;;;;12.45;4.53;;;;;;;15.64;100.00;101136.88;6333084;22;20068;-84
2022/10/28 10:47:02;;;;;;;14.50;3.83;;;;;;;15.67;100.00;101130.59;6334306;22;20076;-83
2022/10/28 10:50:22;;;;;;;10.18;3.65;;;;;;;15.92;100.00;101133.34;6335630;22;20021;-82
2022/10/28 10:53:32;;;;;;;16.25;4.55;;;;;;;15.99;100.00;101123.25;6334141;22;20025;-82
2022/10/28 10:56:36;;;;;;;13.52;4.85;;;;;;;15.95;100.00;101122.59;6314886;22;20038;-82
2022/10/28 10:59:43;;;;;;;10.32;4.32;;;;;;;16.06;100.00;101121.03;6333889;22;20026;-82
2022/10/28 11:02:47;;;;;;;11.25;3.92;;;;;;;16.11;100.00;101116.28;6335872;22;20076;-82
2022/10/28 11:05:56;;;;;;;14.60;3.92;;;;;;;16.33;100.00;101127.13;6334315;22;20095;-83
2022/10/28 11:09:03;;;;;;;14.75;4.10;;;;;;;16.43;100.00;101122.06;6333150;22;20026;-82
2022/10/28 11:12:35;;;;;;;16.65;4.60;;;;;;;16.59;100.00;101106.91;6334154;22;20512;-83
2022/10/28 11:15:39;;;;;;;14.95;4.75;;;;;;;16.63;100.00;101102.25;6333754;22;20397;-83
2022/10/28 11:18:45;;;;;;;12.65;4.75;;;;;;;16.70;100.00;101104.34;6333418;22;20026;-82
2022/10/28 11:22:06;;;;;;;15.20;3.83;;;;;;;16.71;100.00;101097.28;6313602;22;20399;-82
2022/10/28 11:25:37;;;;;;;12.38;4.22;;;;;;;16.78;100.00;101092.44;6314749;22;20362;-83
2022/10/28 11:29:09;;;;;;;18.15;4.75;;;;;;;16.90;100.00;101087.16;6331844;22;20029;-83
2022/10/28 11:32:17;;;;;;;12.25;5.78;;;;;;;16.82;100.00;101078.94;6331455;22;20041;-83
2022/10/28 11:35:27;;;;;;;12.23;5.75;;;;;;;16.79;100.00;101073.88;6313668;22;20366;-82
2022/10/28 11:38:43;;;;;;;18.25;4.20;;;;;;;17.12;100.00;101077.72;6334851;22;20053;-83
2022/10/28 11:41:56;;;;;;;15.25;3.92;;;;;;;17.23;100.00;101076.94;6333513;22;20067;-83
2022/10/28 11:45:24;;;;;;;21.15;5.38;;;;;;;17.08;100.00;101068.34;6333166;22;20273;-83
2022/10/28 11:48:45;;;;;;;27.27;5.50;;;;;;;17.34;100.00;101067.31;6332845;22;20022;-83
2022/10/28 11:52:34;;;;;;;17.63;3.83;;;;;;;17.25;99.14;101056.56;6332488;22;20342;-83
2022/10/28 11:55:54;;;;;;;16.42;4.13;;;;;;;17.07;98.54;101058.69;6333506;22;20021;-83
2022/10/28 11:59:45;;;;;;;17.27;4.45;;;;;;;17.05;100.00;101039.50;6332667;22;20025;-83
2022/10/28 12:02:57;;;;;;;22.92;4.35;;;;;;;17.32;100.00;101044.56;6248688;22;20065;-85
2022/10/28 12:06:29;;;;;;;17.38;5.40;;;;;;;17.24;98.29;101044.31;6331722;22;20029;-84
2022/10/28 12:10:06;;;;;;;13.27;4.47;;;;;;;17.24;99.94;101034.56;6332823;22;20043;-84
2022/10/28 12:13:33;;;;;;;18.13;4.70;;;;;;;17.60;100.00;101027.53;6331744;22;20473;-85
2022/10/28 12:16:47;;;;;;;21.50;4.70;;;;;;;17.69;97.17;101026.88;6314305;22;20049;-84
2022/10/28 12:20:00;;;;;;;13.75;4.68;;;;;;;17.77;96.29;101024.53;6332241;22;20060;-84
2022/10/28 12:23:14;;;;;;;18.77;4.85;;;;;;;17.97;97.65;101019.56;6332737;22;20021;-84
2022/10/28 12:26:20;;;;;;;20.02;5.22;;;;;;;18.16;98.14;101017.19;6332409;22;20026;-84
2022/10/28 12:29:32;;;;;;;24.98;5.25;;;;;;;17.99;97.41;101021.09;6332445;22;20460;-85
2022/10/28 12:32:37;;;;;;;15.85;4.40;;;;;;;17.78;96.46;101010.34;6330269;22;20061;-85
2022/10/28 12:36:00;;;;;;;23.02;4.85;;;;;;;17.88;96.77;101007.84;6331007;22;20396;-84
2022/10/28 12:39:11;;;;;;;18.42;4.03;;;;;;;17.74;97.56;101010.66;6332867;22;20453;-85
2022/10/28 12:42:24;;;;;;;25.90;5.47;;;;;;;18.07;98.21;101015.25;6334047;22;20033;-84
2022/10/28 12:45:31;;;;;;;18.13;4.80;;;;;;;18.23;94.91;101013.13;6334102;22;20395;-84
2022/10/28 12:48:41;;;;;;;14.65;4.80;;;;;;;18.19;93.11;101011.66;6333564;22;20349;-84
2022/10/28 12:51:46;;;;;;;40.75;6.47;;;;;;;18.25;94.13;101013.84;6334316;22;20068;-84
2022/10/28 12:55:00;;;;;;;19.70;5.35;;;;;;;18.32;94.02;101012.41;6334784;22;20401;-85
2022/10/28 12:58:24;;;;;;;17.83;5.10;;;;;;;18.55;94.83;101015.06;6332638;22;20152;-84
2022/10/28 13:01:31;;;;;;;17.65;4.03;;;;;;;18.54;92.37;101010.75;6312593;22;20395;-84
2022/10/28 13:04:36;;;;;;;28.30;4.95;;;;;;;18.95;93.95;101012.81;6333355;22;20025;-84
2022/10/28 13:08:13;;;;;;;32.17;9.02;;;;;;;18.84;92.09;101017.28;6333138;22;20346;-84
2022/10/28 13:11:39;;;;;;;21.98;8.02;;;;;;;18.69;94.33;101009.53;6333242;22;20465;-84
2022/10/28 13:14:49;;;;;;;24.50;8.48;;;;;;;18.66;88.57;101012.41;6336811;22;20071;-84
2022/10/28 13:18:21;;;;;;;26.98;7.50;;;;;;;18.72;90.83;101011.97;6332958;22;20026;-85
2022/10/28 13:21:39;;;;;;;19.48;5.50;;;;;;;18.60;91.78;101015.53;6331551;22;20017;-85
2022/10/28 13:24:43;;;;;;;18.60;4.60;;;;;;;18.91;79.84;101007.88;6313699;22;20026;-85
2022/10/28 13:27:47;;;;;;;21.75;4.25;;;;;;;19.22;75.77;100995.66;6332635;22;20025;-84
2022/10/28 13:30:57;;;;;;;14.32;3.90;;;;;;;19.44;77.13;101006.19;6331711;22;20017;-84
2022/10/28 13:34:04;;;;;;;13.47;3.60;;;;;;;19.62;72.67;100995.88;6333935;22;20022;-84
2022/10/28 13:37:19;;;;;;;18.02;3.90;;;;;;;19.63;72.63;100994.06;6334320;22;20514;-84
2022/10/28 13:40:30;;;;;;;11.00;3.50;;;;;;;19.80;69.97;100992.69;6316096;22;20227;-85
2022/10/28 13:43:49;;;;;;;13.00;3.90;;;;;;;19.65;69.40;100990.34;6335078;22;20083;-84
2022/10/28 13:47:23;;;;;;;20.35;3.58;;;;;;;19.80;67.94;100985.56;6333369;22;20098;-85
2022/10/28 13:50:32;;;;;;;21.67;4.60;;;;;;;19.61;71.85;100991.53;6335317;22;20022;-84
2022/10/28 13:53:50;;;;;;;20.27;5.45;;;;;;;19.68;69.76;100984.78;6335664;22;20025;-84
2022/10/28 13:57:06;;;;;;;17.95;6.00;;;;;;;19.65;73.28;100998.28;6333826;22;20064;-84
2022/10/28 14:00:15;;;;;;;11.52;4.10;;;;;;;19.36;74.69;101000.66;6333033;22;20079;-84
2022/10/28 14:03:23;;;;;;;21.55;4.32;;;;;;;19.14;75.80;101001.56;6314096;22;20021;-85
2022/10/28 14:06:33;;;;;;;16.88;5.03;;;;;;;19.37;71.86;100990.88;6333125;22;20021;-85
2022/10/28 14:09:39;;;;;;;13.23;4.28;;;;;;;19.31;69.78;100994.06;6333430;22;20105;-84
2022/10/28 14:12:47;;;;;;;19.85;5.35;;;;;;;19.12;74.02;100997.38;6333752;22;20400;-85
2022/10/28 14:16:22;;;;;;;19.42;4.32;;;;;;;18.93;76.87;100995.34;6333178;22;20397;-85
2022/10/28 14:19:27;;;;;;;25.77;5.60;;;;;;;18.65;80.81;101008.09;6314304;22;20082;-85
2022/10/28 14:22:33;;;;;;;22.70;4.65;;;;;;;18.45;82.98;101011.47;6333783;22;20018;-85
2022/10/28 14:25:43;;;;;;;17.05;4.47;;;;;;;18.30;85.81;101019.63;6333382;22;20142;-85
2022/10/28 14:28:49;;;;;;;21.00;4.75;;;;;;;18.16;86.59;101025.13;6314446;22;20463;-85
2022/10/28 14:31:53;;;;;;;21.83;4.13;;;;;;;18.08;87.71;101022.22;6334338;22;20436;-85
2022/10/28 14:35:11;;;;;;;25.02;5.55;;;;;;;18.04;88.02;101028.72;6333897;22;20022;-85
2022/10/28 14:38:44;;;;;;;19.85;4.43;;;;;;;17.96;88.75;101039.00;6314970;22;20033;-85
2022/10/28 14:42:03;;;;;;;23.73;5.25;;;;;;;17.89;89.05;101042.13;6334233;22;20017;-85
2022/10/28 14:45:36;;;;;;;24.02;5.05;;;;;;;17.76;89.74;101046.59;6333668;22;20106;-85
2022/10/28 14:48:53;;;;;;;15.48;4.57;;;;;;;17.69;89.59;101045.38;6334717;22;20026;-86
2022/10/28 14:52:11;;;;;;;21.20;5.70;;;;;;;17.62;91.13;101044.16;6334034;22;20072;-86
2022/10/28 14:55:24;;;;;;;19.20;4.50;;;;;;;17.51;92.06;101046.72;6334240;22;20037;-86
2022/10/28 14:58:41;;;;;;;20.05;4.97;;;;;;;17.44;92.44;101049.81;6316352;22;20083;-85